sensor_id;sensor_type;location;lat;lon;timestamp;temperature;humidity
16907;DHT22;8570;52.380;4.654;2023-07-22T00:00:28;16.50;99.90
16907;DHT22;8570;52.380;4.654;2023-07-22T00:05:34;16.50;99.90
16907;DHT22;8570;52.380;4.654;2023-07-22T00:10:42;16.40;99.90
16907;DHT22;8570;52.380;4.654;2023-07-22T00:15:47;16.50;99.90
16907;DHT22;8570;52.380;4.654;2023-07-22T00:20:52;16.40;99.90
16907;DHT22;8570;52.380;4.654;2023-07-22T00:25:54;16.40;99.90
16907;DHT22;8570;52.380;4.654;2023-07-22T00:31:02;16.40;99.90
16907;DHT22;8570;52.380;4.654;2023-07-22T00:36:09;16.40;99.90
16907;DHT22;8570;52.380;4.654;2023-07-22T00:41:19;16.30;99.90
16907;DHT22;8570;52.380;4.654;2023-07-22T00:46:26;16.30;99.90
16907;DHT22;8570;52.380;4.654;2023-07-22T00:51:35;16.20;99.90
16907;DHT22;8570;52.380;4.654;2023-07-22T00:56:37;16.20;99.90
16907;DHT22;8570;52.380;4.654;2023-07-22T01:01:46;16.20;99.90
16907;DHT22;8570;52.380;4.654;2023-07-22T01:06:57;16.10;99.90
16907;DHT22;8570;52.380;4.654;2023-07-22T01:12:02;16.10;99.90
16907;DHT22;8570;52.380;4.654;2023-07-22T01:22:28;16.00;99.90
16907;DHT22;8570;52.380;4.654;2023-07-22T01:27:43;15.90;99.90
16907;DHT22;8570;52.380;4.654;2023-07-22T01:33:03;15.90;99.90
16907;DHT22;8570;52.380;4.654;2023-07-22T01:38:17;15.90;99.90
16907;DHT22;8570;52.380;4.654;2023-07-22T01:43:49;15.80;99.90
16907;DHT22;8570;52.380;4.654;2023-07-22T01:49:31;15.80;99.90
16907;DHT22;8570;52.380;4.654;2023-07-22T01:54:28;15.80;99.90
16907;DHT22;8570;52.380;4.654;2023-07-22T01:59:43;15.80;99.90
16907;DHT22;8570;52.380;4.654;2023-07-22T02:04:51;15.80;99.90
16907;DHT22;8570;52.380;4.654;2023-07-22T02:09:55;15.70;99.90
16907;DHT22;8570;52.380;4.654;2023-07-22T02:15:01;15.70;99.90
16907;DHT22;8570;52.380;4.654;2023-07-22T02:20:14;15.70;99.90
16907;DHT22;8570;52.380;4.654;2023-07-22T02:25:22;15.60;99.90
16907;DHT22;8570;52.380;4.654;2023-07-22T02:30:38;15.60;99.90
16907;DHT22;8570;52.380;4.654;2023-07-22T02:36:16;15.60;99.90
16907;DHT22;8570;52.380;4.654;2023-07-22T02:47:13;15.60;99.90
16907;DHT22;8570;52.380;4.654;2023-07-22T02:52:31;15.60;99.90
16907;DHT22;8570;52.380;4.654;2023-07-22T03:03:31;15.50;99.90
16907;DHT22;8570;52.380;4.654;2023-07-22T03:08:47;15.60;99.90
16907;DHT22;8570;52.380;4.654;2023-07-22T03:14:06;15.60;99.90
16907;DHT22;8570;52.380;4.654;2023-07-22T03:20:00;15.60;99.90
16907;DHT22;8570;52.380;4.654;2023-07-22T03:25:34;15.60;99.90
16907;DHT22;8570;52.380;4.654;2023-07-22T03:30:54;15.70;99.90
16907;DHT22;8570;52.380;4.654;2023-07-22T03:36:09;15.70;99.90
16907;DHT22;8570;52.380;4.654;2023-07-22T03:41:48;15.70;99.90
16907;DHT22;8570;52.380;4.654;2023-07-22T03:46:56;15.70;99.90
16907;DHT22;8570;52.380;4.654;2023-07-22T03:52:13;15.70;99.90
16907;DHT22;8570;52.380;4.654;2023-07-22T03:57:34;15.70;99.90
16907;DHT22;8570;52.380;4.654;2023-07-22T04:02:37;15.70;99.90
16907;DHT22;8570;52.380;4.654;2023-07-22T04:08:07;15.70;99.90
16907;DHT22;8570;52.380;4.654;2023-07-22T04:20:57;15.70;99.90
16907;DHT22;8570;52.380;4.654;2023-07-22T04:25:22;15.70;99.90
16907;DHT22;8570;52.380;4.654;2023-07-22T04:31:09;15.70;99.90
16907;DHT22;8570;52.380;4.654;2023-07-22T04:42:19;15.70;99.90
16907;DHT22;8570;52.380;4.654;2023-07-22T04:47:22;15.80;99.90
16907;DHT22;8570;52.380;4.654;2023-07-22T04:52:25;15.80;99.90
16907;DHT22;8570;52.380;4.654;2023-07-22T04:57:28;15.90;99.90
16907;DHT22;8570;52.380;4.654;2023-07-22T05:02:30;15.90;99.90
16907;DHT22;8570;52.380;4.654;2023-07-22T05:07:32;16.00;99.90
16907;DHT22;8570;52.380;4.654;2023-07-22T05:12:35;16.00;99.90
16907;DHT22;8570;52.380;4.654;2023-07-22T05:17:37;16.10;99.90
16907;DHT22;8570;52.380;4.654;2023-07-22T05:22:41;16.10;99.90
16907;DHT22;8570;52.380;4.654;2023-07-22T05:27:44;16.10;99.90
16907;DHT22;8570;52.380;4.654;2023-07-22T05:32:46;16.10;99.90
16907;DHT22;8570;52.380;4.654;2023-07-22T05:37:48;16.00;99.90
16907;DHT22;8570;52.380;4.654;2023-07-22T05:42:51;16.00;99.90
16907;DHT22;8570;52.380;4.654;2023-07-22T05:47:54;16.00;99.90
16907;DHT22;8570;52.380;4.654;2023-07-22T05:52:56;16.00;99.90
16907;DHT22;8570;52.380;4.654;2023-07-22T05:57:59;16.00;99.90
16907;DHT22;8570;52.380;4.654;2023-07-22T06:03:05;16.10;99.90
16907;DHT22;8570;52.380;4.654;2023-07-22T06:08:08;16.10;99.90
16907;DHT22;8570;52.380;4.654;2023-07-22T06:13:12;16.20;99.90
16907;DHT22;8570;52.380;4.654;2023-07-22T06:18:14;16.30;99.90
16907;DHT22;8570;52.380;4.654;2023-07-22T06:23:16;16.30;99.90
16907;DHT22;8570;52.380;4.654;2023-07-22T06:28:19;16.40;99.90
16907;DHT22;8570;52.380;4.654;2023-07-22T06:33:21;16.40;99.90
16907;DHT22;8570;52.380;4.654;2023-07-22T06:38:23;16.40;99.90
16907;DHT22;8570;52.380;4.654;2023-07-22T06:43:26;16.50;99.90
16907;DHT22;8570;52.380;4.654;2023-07-22T06:48:28;16.60;99.90
16907;DHT22;8570;52.380;4.654;2023-07-22T06:59:58;16.60;99.90
16907;DHT22;8570;52.380;4.654;2023-07-22T07:05:21;16.60;99.90
16907;DHT22;8570;52.380;4.654;2023-07-22T07:10:39;16.60;99.90
16907;DHT22;8570;52.380;4.654;2023-07-22T07:15:48;16.60;99.90
16907;DHT22;8570;52.380;4.654;2023-07-22T07:20:50;16.60;99.90
16907;DHT22;8570;52.380;4.654;2023-07-22T07:25:54;16.60;99.90
16907;DHT22;8570;52.380;4.654;2023-07-22T07:30:58;16.60;99.90
16907;DHT22;8570;52.380;4.654;2023-07-22T07:36:05;16.70;99.90
16907;DHT22;8570;52.380;4.654;2023-07-22T07:41:15;16.80;99.90
16907;DHT22;8570;52.380;4.654;2023-07-22T07:46:25;16.90;99.90
16907;DHT22;8570;52.380;4.654;2023-07-22T07:51:57;16.90;99.90
16907;DHT22;8570;52.380;4.654;2023-07-22T07:57:05;16.90;99.90
16907;DHT22;8570;52.380;4.654;2023-07-22T08:02:20;16.90;99.90
16907;DHT22;8570;52.380;4.654;2023-07-22T08:07:25;16.90;99.90
16907;DHT22;8570;52.380;4.654;2023-07-22T08:12:33;16.90;99.90
16907;DHT22;8570;52.380;4.654;2023-07-22T08:17:45;17.00;99.90
16907;DHT22;8570;52.380;4.654;2023-07-22T08:22:49;17.20;99.90
16907;DHT22;8570;52.380;4.654;2023-07-22T08:27:53;17.30;99.90
16907;DHT22;8570;52.380;4.654;2023-07-22T08:33:00;17.30;99.90
16907;DHT22;8570;52.380;4.654;2023-07-22T08:38:03;17.50;99.90
16907;DHT22;8570;52.380;4.654;2023-07-22T08:43:11;17.70;99.90
16907;DHT22;8570;52.380;4.654;2023-07-22T08:48:26;17.90;99.90
16907;DHT22;8570;52.380;4.654;2023-07-22T08:53:33;18.10;99.90
16907;DHT22;8570;52.380;4.654;2023-07-22T08:58:39;18.30;99.90
16907;DHT22;8570;52.380;4.654;2023-07-22T09:04:00;18.50;99.90
16907;DHT22;8570;52.380;4.654;2023-07-22T09:09:13;18.60;99.90
16907;DHT22;8570;52.380;4.654;2023-07-22T09:14:25;18.50;99.90
16907;DHT22;8570;52.380;4.654;2023-07-22T09:19:34;18.60;99.90
16907;DHT22;8570;52.380;4.654;2023-07-22T09:25:16;18.70;99.90
16907;DHT22;8570;52.380;4.654;2023-07-22T09:30:26;18.70;99.90
16907;DHT22;8570;52.380;4.654;2023-07-22T09:35:45;18.70;99.90
16907;DHT22;8570;52.380;4.654;2023-07-22T09:41:01;18.80;99.90
16907;DHT22;8570;52.380;4.654;2023-07-22T09:46:15;18.80;99.90
16907;DHT22;8570;52.380;4.654;2023-07-22T09:51:26;18.80;99.90
16907;DHT22;8570;52.380;4.654;2023-07-22T09:56:50;18.70;99.90
16907;DHT22;8570;52.380;4.654;2023-07-22T10:01:52;18.70;99.90
16907;DHT22;8570;52.380;4.654;2023-07-22T10:06:57;18.70;99.90
16907;DHT22;8570;52.380;4.654;2023-07-22T10:11:59;18.60;99.90
16907;DHT22;8570;52.380;4.654;2023-07-22T10:17:09;18.70;99.90
16907;DHT22;8570;52.380;4.654;2023-07-22T10:22:13;18.80;99.90
16907;DHT22;8570;52.380;4.654;2023-07-22T10:27:17;18.80;99.90
16907;DHT22;8570;52.380;4.654;2023-07-22T10:32:19;18.90;99.90
16907;DHT22;8570;52.380;4.654;2023-07-22T10:37:32;19.00;99.90
16907;DHT22;8570;52.380;4.654;2023-07-22T10:42:34;19.20;99.90
16907;DHT22;8570;52.380;4.654;2023-07-22T10:47:36;19.40;99.90
16907;DHT22;8570;52.380;4.654;2023-07-22T10:52:50;19.50;99.90
16907;DHT22;8570;52.380;4.654;2023-07-22T10:57:55;19.50;99.90
16907;DHT22;8570;52.380;4.654;2023-07-22T11:03:12;19.60;99.90
16907;DHT22;8570;52.380;4.654;2023-07-22T11:08:35;19.60;99.90
16907;DHT22;8570;52.380;4.654;2023-07-22T11:13:38;19.70;99.90
16907;DHT22;8570;52.380;4.654;2023-07-22T11:18:45;19.80;99.90
16907;DHT22;8570;52.380;4.654;2023-07-22T11:23:53;19.90;99.90
16907;DHT22;8570;52.380;4.654;2023-07-22T11:28:57;20.00;99.90
16907;DHT22;8570;52.380;4.654;2023-07-22T11:34:02;20.10;99.90
16907;DHT22;8570;52.380;4.654;2023-07-22T11:39:10;20.40;99.90
16907;DHT22;8570;52.380;4.654;2023-07-22T11:44:20;20.50;99.90
16907;DHT22;8570;52.380;4.654;2023-07-22T11:49:27;20.40;99.90
16907;DHT22;8570;52.380;4.654;2023-07-22T11:54:53;20.30;99.90
16907;DHT22;8570;52.380;4.654;2023-07-22T11:59:59;20.20;99.90
16907;DHT22;8570;52.380;4.654;2023-07-22T12:05:12;20.10;99.90
16907;DHT22;8570;52.380;4.654;2023-07-22T12:10:20;20.10;99.90
16907;DHT22;8570;52.380;4.654;2023-07-22T12:15:25;20.00;99.90
16907;DHT22;8570;52.380;4.654;2023-07-22T12:20:31;20.00;99.90
16907;DHT22;8570;52.380;4.654;2023-07-22T12:25:39;20.00;99.90
16907;DHT22;8570;52.380;4.654;2023-07-22T12:30:42;20.00;99.90
16907;DHT22;8570;52.380;4.654;2023-07-22T12:35:46;19.90;99.90
16907;DHT22;8570;52.380;4.654;2023-07-22T12:40:55;19.90;99.90
16907;DHT22;8570;52.380;4.654;2023-07-22T12:45:57;19.70;99.90
16907;DHT22;8570;52.380;4.654;2023-07-22T12:51:02;19.60;99.90
16907;DHT22;8570;52.380;4.654;2023-07-22T12:56:15;19.50;99.90
16907;DHT22;8570;52.380;4.654;2023-07-22T13:01:23;19.50;99.90
16907;DHT22;8570;52.380;4.654;2023-07-22T13:06:25;19.40;99.90
16907;DHT22;8570;52.380;4.654;2023-07-22T13:11:28;19.40;99.90
16907;DHT22;8570;52.380;4.654;2023-07-22T13:16:35;19.50;99.90
16907;DHT22;8570;52.380;4.654;2023-07-22T13:21:40;19.50;99.90
16907;DHT22;8570;52.380;4.654;2023-07-22T13:26:44;19.60;99.90
16907;DHT22;8570;52.380;4.654;2023-07-22T13:31:46;19.70;99.90
16907;DHT22;8570;52.380;4.654;2023-07-22T13:36:48;19.80;99.90
16907;DHT22;8570;52.380;4.654;2023-07-22T13:41:52;19.80;99.90
16907;DHT22;8570;52.380;4.654;2023-07-22T13:46:54;19.90;99.90
16907;DHT22;8570;52.380;4.654;2023-07-22T13:52:01;19.90;99.90
16907;DHT22;8570;52.380;4.654;2023-07-22T13:57:08;20.00;99.90
16907;DHT22;8570;52.380;4.654;2023-07-22T14:02:16;20.00;99.90
16907;DHT22;8570;52.380;4.654;2023-07-22T14:07:19;20.00;99.90
16907;DHT22;8570;52.380;4.654;2023-07-22T14:12:23;20.00;99.90
16907;DHT22;8570;52.380;4.654;2023-07-22T14:17:25;20.00;99.90
16907;DHT22;8570;52.380;4.654;2023-07-22T14:22:30;20.00;99.90
16907;DHT22;8570;52.380;4.654;2023-07-22T14:27:33;20.00;99.90
16907;DHT22;8570;52.380;4.654;2023-07-22T14:32:40;19.90;99.90
16907;DHT22;8570;52.380;4.654;2023-07-22T14:37:46;19.80;99.90
16907;DHT22;8570;52.380;4.654;2023-07-22T14:42:55;19.70;99.90
16907;DHT22;8570;52.380;4.654;2023-07-22T14:48:03;19.70;99.90
16907;DHT22;8570;52.380;4.654;2023-07-22T14:53:05;19.60;99.90
16907;DHT22;8570;52.380;4.654;2023-07-22T14:58:09;19.50;99.90
16907;DHT22;8570;52.380;4.654;2023-07-22T15:03:11;19.40;99.90
16907;DHT22;8570;52.380;4.654;2023-07-22T15:08:15;19.40;99.90
16907;DHT22;8570;52.380;4.654;2023-07-22T15:13:19;19.40;99.90
16907;DHT22;8570;52.380;4.654;2023-07-22T15:18:24;19.40;99.90
16907;DHT22;8570;52.380;4.654;2023-07-22T15:23:29;19.30;99.90
16907;DHT22;8570;52.380;4.654;2023-07-22T15:28:34;19.40;99.90
16907;DHT22;8570;52.380;4.654;2023-07-22T15:33:36;19.30;99.90
16907;DHT22;8570;52.380;4.654;2023-07-22T15:38:43;19.30;99.90
16907;DHT22;8570;52.380;4.654;2023-07-22T15:43:47;19.40;99.90
16907;DHT22;8570;52.380;4.654;2023-07-22T15:48:49;19.30;99.90
16907;DHT22;8570;52.380;4.654;2023-07-22T15:53:53;19.30;99.90
16907;DHT22;8570;52.380;4.654;2023-07-22T15:58:57;19.30;99.90
16907;DHT22;8570;52.380;4.654;2023-07-22T16:04:01;19.30;99.90
16907;DHT22;8570;52.380;4.654;2023-07-22T16:09:09;19.20;99.90
16907;DHT22;8570;52.380;4.654;2023-07-22T16:14:20;19.30;99.90
16907;DHT22;8570;52.380;4.654;2023-07-22T16:19:25;19.30;99.90
16907;DHT22;8570;52.380;4.654;2023-07-22T16:24:30;19.30;99.90
16907;DHT22;8570;52.380;4.654;2023-07-22T16:29:34;19.20;99.90
16907;DHT22;8570;52.380;4.654;2023-07-22T16:34:38;19.20;99.90
16907;DHT22;8570;52.380;4.654;2023-07-22T16:39:46;19.10;99.90
16907;DHT22;8570;52.380;4.654;2023-07-22T16:44:54;19.10;99.90
16907;DHT22;8570;52.380;4.654;2023-07-22T16:49:56;19.10;99.90
16907;DHT22;8570;52.380;4.654;2023-07-22T16:54:58;19.10;99.90
16907;DHT22;8570;52.380;4.654;2023-07-22T17:00:01;19.00;99.90
16907;DHT22;8570;52.380;4.654;2023-07-22T17:05:05;19.00;99.90
16907;DHT22;8570;52.380;4.654;2023-07-22T17:10:08;19.00;99.90
16907;DHT22;8570;52.380;4.654;2023-07-22T17:15:21;18.90;99.90
16907;DHT22;8570;52.380;4.654;2023-07-22T17:20:23;18.90;99.90
16907;DHT22;8570;52.380;4.654;2023-07-22T17:25:25;18.80;99.90
16907;DHT22;8570;52.380;4.654;2023-07-22T17:30:29;18.80;99.90
16907;DHT22;8570;52.380;4.654;2023-07-22T17:35:31;18.70;99.90
16907;DHT22;8570;52.380;4.654;2023-07-22T17:40:33;18.60;99.90
16907;DHT22;8570;52.380;4.654;2023-07-22T17:45:36;18.50;99.90
16907;DHT22;8570;52.380;4.654;2023-07-22T17:50:38;18.40;99.90
16907;DHT22;8570;52.380;4.654;2023-07-22T17:55:40;18.20;99.90
16907;DHT22;8570;52.380;4.654;2023-07-22T18:00:43;18.10;99.90
16907;DHT22;8570;52.380;4.654;2023-07-22T18:05:46;18.00;99.90
16907;DHT22;8570;52.380;4.654;2023-07-22T18:10:49;17.80;99.90
16907;DHT22;8570;52.380;4.654;2023-07-22T18:15:53;17.60;99.90
16907;DHT22;8570;52.380;4.654;2023-07-22T18:20:56;17.50;99.90
16907;DHT22;8570;52.380;4.654;2023-07-22T18:26:23;17.40;99.90
16907;DHT22;8570;52.380;4.654;2023-07-22T18:31:34;17.20;99.90
16907;DHT22;8570;52.380;4.654;2023-07-22T18:36:46;17.10;99.90
16907;DHT22;8570;52.380;4.654;2023-07-22T18:42:21;16.90;99.90
16907;DHT22;8570;52.380;4.654;2023-07-22T18:47:55;16.80;99.90
16907;DHT22;8570;52.380;4.654;2023-07-22T18:53:07;16.70;99.90
16907;DHT22;8570;52.380;4.654;2023-07-22T18:58:11;16.60;99.90
16907;DHT22;8570;52.380;4.654;2023-07-22T19:03:25;16.40;99.90
16907;DHT22;8570;52.380;4.654;2023-07-22T19:08:33;16.30;99.90
16907;DHT22;8570;52.380;4.654;2023-07-22T19:14:01;16.20;99.90
16907;DHT22;8570;52.380;4.654;2023-07-22T19:19:26;16.10;99.90
16907;DHT22;8570;52.380;4.654;2023-07-22T19:24:50;16.10;99.90
16907;DHT22;8570;52.380;4.654;2023-07-22T19:30:21;16.10;99.90
16907;DHT22;8570;52.380;4.654;2023-07-22T19:35:43;16.20;99.90
16907;DHT22;8570;52.380;4.654;2023-07-22T19:41:05;16.20;99.90
16907;DHT22;8570;52.380;4.654;2023-07-22T19:46:08;16.20;99.90
16907;DHT22;8570;52.380;4.654;2023-07-22T20:15:11;16.00;99.90
16907;DHT22;8570;52.380;4.654;2023-07-22T20:31:49;15.90;99.90
16907;DHT22;8570;52.380;4.654;2023-07-22T20:36:51;15.90;99.90
16907;DHT22;8570;52.380;4.654;2023-07-22T20:41:52;15.90;99.90
16907;DHT22;8570;52.380;4.654;2023-07-22T20:46:56;15.80;99.90
16907;DHT22;8570;52.380;4.654;2023-07-22T20:52:00;15.80;99.90
16907;DHT22;8570;52.380;4.654;2023-07-22T20:57:02;15.80;99.90
16907;DHT22;8570;52.380;4.654;2023-07-22T21:02:06;15.80;99.90
16907;DHT22;8570;52.380;4.654;2023-07-22T21:07:08;15.80;99.90
16907;DHT22;8570;52.380;4.654;2023-07-22T21:12:10;15.80;99.90
16907;DHT22;8570;52.380;4.654;2023-07-22T21:17:13;15.70;99.90
16907;DHT22;8570;52.380;4.654;2023-07-22T21:22:15;15.80;99.90
16907;DHT22;8570;52.380;4.654;2023-07-22T21:27:17;15.80;99.90
16907;DHT22;8570;52.380;4.654;2023-07-22T21:32:20;15.70;99.90
16907;DHT22;8570;52.380;4.654;2023-07-22T21:37:22;15.70;99.90
16907;DHT22;8570;52.380;4.654;2023-07-22T21:42:24;15.70;99.90
16907;DHT22;8570;52.380;4.654;2023-07-22T21:47:28;15.70;99.90
16907;DHT22;8570;52.380;4.654;2023-07-22T21:52:30;15.60;99.90
16907;DHT22;8570;52.380;4.654;2023-07-22T21:57:35;15.60;99.90
16907;DHT22;8570;52.380;4.654;2023-07-22T22:02:38;15.60;99.90
16907;DHT22;8570;52.380;4.654;2023-07-22T22:07:40;15.60;99.90
16907;DHT22;8570;52.380;4.654;2023-07-22T22:12:42;15.60;99.90
16907;DHT22;8570;52.380;4.654;2023-07-22T22:17:46;15.60;99.90
16907;DHT22;8570;52.380;4.654;2023-07-22T22:22:48;15.60;99.90
16907;DHT22;8570;52.380;4.654;2023-07-22T22:27:49;15.60;99.90
16907;DHT22;8570;52.380;4.654;2023-07-22T22:32:53;15.60;99.90
16907;DHT22;8570;52.380;4.654;2023-07-22T22:37:55;15.60;99.90
16907;DHT22;8570;52.380;4.654;2023-07-22T22:42:57;15.60;99.90
16907;DHT22;8570;52.380;4.654;2023-07-22T22:48:05;15.50;99.90
16907;DHT22;8570;52.380;4.654;2023-07-22T22:53:07;15.50;99.90
16907;DHT22;8570;52.380;4.654;2023-07-22T22:58:12;15.50;99.90
16907;DHT22;8570;52.380;4.654;2023-07-22T23:03:15;15.40;99.90
16907;DHT22;8570;52.380;4.654;2023-07-22T23:08:17;15.40;99.90
16907;DHT22;8570;52.380;4.654;2023-07-22T23:13:19;15.30;99.90
16907;DHT22;8570;52.380;4.654;2023-07-22T23:18:22;15.30;99.90
16907;DHT22;8570;52.380;4.654;2023-07-22T23:23:24;15.20;99.90
16907;DHT22;8570;52.380;4.654;2023-07-22T23:28:27;15.20;99.90
16907;DHT22;8570;52.380;4.654;2023-07-22T23:33:30;15.20;99.90
16907;DHT22;8570;52.380;4.654;2023-07-22T23:38:34;15.20;99.90
16907;DHT22;8570;52.380;4.654;2023-07-22T23:43:36;15.20;99.90
16907;DHT22;8570;52.380;4.654;2023-07-22T23:48:39;15.20;99.90
16907;DHT22;8570;52.380;4.654;2023-07-22T23:53:41;15.20;99.90
16907;DHT22;8570;52.380;4.654;2023-07-22T23:58:43;15.20;99.90
